createdAt,value
2019-05-15T00:00:02.057Z,10.40
2019-05-15T00:02:32.765Z,10.40
2019-05-15T00:05:03.365Z,10.40
2019-05-15T00:07:33.969Z,10.40
2019-05-15T00:10:04.815Z,10.30
2019-05-15T00:12:35.707Z,10.30
2019-05-15T00:15:08.892Z,10.20
2019-05-15T00:17:39.631Z,10.20
2019-05-15T00:20:10.464Z,10.10
2019-05-15T00:22:41.198Z,10.00
2019-05-15T00:25:12.579Z,10.00
2019-05-15T00:27:43.323Z,10.00
2019-05-15T00:30:14.294Z,10.00
2019-05-15T00:32:45.269Z,9.90
2019-05-15T00:35:18.234Z,9.80
2019-05-15T00:37:49.296Z,9.80
2019-05-15T00:40:20.268Z,9.70
2019-05-15T00:42:51.149Z,9.70
2019-05-15T00:45:22.128Z,9.70
2019-05-15T00:47:52.854Z,9.70
2019-05-15T00:50:23.798Z,9.60
2019-05-15T00:52:54.648Z,9.60
2019-05-15T00:55:25.539Z,9.50
2019-05-15T00:57:56.390Z,9.50
2019-05-15T01:00:46.637Z,9.50
2019-05-15T01:03:18.435Z,9.40
2019-05-15T01:05:49.300Z,9.40
2019-05-15T01:08:20.115Z,9.40
2019-05-15T01:10:50.946Z,9.30
2019-05-15T01:13:22.058Z,9.30
2019-05-15T01:15:52.889Z,9.30
2019-05-15T01:18:23.739Z,9.20
2019-05-15T01:20:54.549Z,9.20
2019-05-15T01:23:25.303Z,9.20
2019-05-15T01:25:56.029Z,9.20
2019-05-15T01:28:28.725Z,9.10
2019-05-15T01:30:59.345Z,9.10
2019-05-15T01:33:30.028Z,9.10
2019-05-15T01:36:00.955Z,9.10
2019-05-15T01:38:31.748Z,9.10
2019-05-15T01:41:02.636Z,9.00
2019-05-15T01:43:34.443Z,9.00
2019-05-15T01:46:05.224Z,8.90
2019-05-15T01:48:38.512Z,8.90
2019-05-15T01:51:09.274Z,8.90
2019-05-15T01:53:40.385Z,8.80
2019-05-15T01:56:11.340Z,8.80
2019-05-15T01:58:42.145Z,8.70
2019-05-15T02:01:12.864Z,8.60
2019-05-15T02:03:43.748Z,8.60
2019-05-15T02:06:14.549Z,8.40
2019-05-15T02:08:45.288Z,8.20
2019-05-15T02:11:17.977Z,7.90
2019-05-15T02:13:48.673Z,7.70
2019-05-15T02:16:19.548Z,7.70
2019-05-15T02:18:50.459Z,7.80
2019-05-15T02:21:21.298Z,7.80
2019-05-15T02:23:52.174Z,7.60
2019-05-15T02:26:23.084Z,7.40
2019-05-15T02:28:53.874Z,7.30
2019-05-15T02:31:25.151Z,7.20
2019-05-15T02:33:58.771Z,7.30
2019-05-15T02:36:29.331Z,7.40
2019-05-15T02:39:00.263Z,7.50
2019-05-15T02:41:31.121Z,7.50
2019-05-15T02:44:02.035Z,7.60
2019-05-15T02:46:32.855Z,7.60
2019-05-15T02:49:03.709Z,7.60
2019-05-15T02:51:34.630Z,7.60
2019-05-15T02:54:05.419Z,7.60
2019-05-15T02:56:38.961Z,7.50
2019-05-15T02:59:09.272Z,7.60
2019-05-15T03:01:40.719Z,7.60
2019-05-15T03:04:11.684Z,7.60
2019-05-15T03:06:42.608Z,7.60
2019-05-15T03:09:13.488Z,7.60
2019-05-15T03:11:44.280Z,7.50
2019-05-15T03:14:15.335Z,7.40
2019-05-15T03:16:46.085Z,7.10
2019-05-15T03:19:19.312Z,7.20
2019-05-15T03:21:49.909Z,7.30
2019-05-15T03:24:21.069Z,7.30
2019-05-15T03:26:51.844Z,7.30
2019-05-15T03:29:22.580Z,7.30
2019-05-15T03:32:13.483Z,7.30
2019-05-15T03:34:35.323Z,7.30
2019-05-15T03:37:03.246Z,7.20
2019-05-15T03:39:31.021Z,7.20
2019-05-15T03:42:01.895Z,7.20
2019-05-15T03:44:32.689Z,7.20
2019-05-15T03:47:03.777Z,7.20
2019-05-15T03:49:35.331Z,7.10
2019-05-15T03:52:09.779Z,7.10
2019-05-15T03:54:39.435Z,7.20
2019-05-15T03:57:10.378Z,7.10
2019-05-15T03:59:41.234Z,7.10
2019-05-15T04:02:12.155Z,7.10
2019-05-15T04:04:43.002Z,7.10
2019-05-15T04:07:13.895Z,7.10
2019-05-15T04:09:44.870Z,7.10
2019-05-15T04:12:15.764Z,7.10
2019-05-15T04:14:49.830Z,7.10
2019-05-15T04:17:19.757Z,7.20
2019-05-15T04:19:50.833Z,7.20
2019-05-15T04:22:21.700Z,7.20
2019-05-15T04:24:53.490Z,7.30
2019-05-15T04:27:28.718Z,7.40
2019-05-15T04:29:59.255Z,7.40
2019-05-15T04:32:30.419Z,7.50
2019-05-15T04:35:01.616Z,7.60
2019-05-15T04:37:32.571Z,7.60
2019-05-15T04:40:03.429Z,7.70
2019-05-15T04:42:34.363Z,7.80
2019-05-15T04:45:05.289Z,7.80
2019-05-15T04:47:39.245Z,7.90
2019-05-15T04:50:09.180Z,8.00
2019-05-15T04:52:43.318Z,8.10
2019-05-15T04:55:13.250Z,8.20
2019-05-15T04:57:44.180Z,8.30
2019-05-15T05:00:15.838Z,8.40
2019-05-15T05:02:49.498Z,8.50
2019-05-15T05:05:18.997Z,8.60
2019-05-15T05:07:50.173Z,8.70
2019-05-15T05:10:21.102Z,8.70
2019-05-15T05:12:51.995Z,8.80
2019-05-15T05:15:22.984Z,8.90
2019-05-15T05:17:54.524Z,9.00
2019-05-15T05:20:25.739Z,9.10
2019-05-15T05:22:58.365Z,9.10
2019-05-15T05:25:28.944Z,9.10
2019-05-15T05:27:59.894Z,9.20
2019-05-15T05:30:30.785Z,9.20
2019-05-15T05:33:01.609Z,9.40
2019-05-15T05:35:32.608Z,9.40
2019-05-15T05:38:03.466Z,9.50
2019-05-15T05:40:34.364Z,9.60
2019-05-15T05:43:05.209Z,9.60
2019-05-15T05:45:38.203Z,9.70
2019-05-15T05:48:08.880Z,9.70
2019-05-15T05:50:44.443Z,9.70
2019-05-15T05:53:14.600Z,9.80
2019-05-15T05:55:45.419Z,10.00
2019-05-15T05:58:19.346Z,10.00
2019-05-15T06:00:49.330Z,10.10
2019-05-15T06:03:20.154Z,10.20
2019-05-15T06:05:50.990Z,10.20
2019-05-15T06:08:21.989Z,10.20
2019-05-15T06:10:52.989Z,10.10
2019-05-15T06:13:23.840Z,10.40
2019-05-15T06:15:54.759Z,10.50
2019-05-15T06:18:27.998Z,10.50
2019-05-15T06:20:58.798Z,10.60
2019-05-15T06:23:34.894Z,10.70
2019-05-15T06:26:02.274Z,10.70
2019-05-15T06:28:33.089Z,10.80
2019-05-15T06:31:03.883Z,10.90
2019-05-15T06:33:34.643Z,11.00
2019-05-15T06:36:05.424Z,11.10
2019-05-15T06:38:36.354Z,11.20
2019-05-15T06:41:08.714Z,11.40
2019-05-15T06:43:39.766Z,11.50
2019-05-15T06:46:10.684Z,11.60
2019-05-15T06:48:41.503Z,11.70
2019-05-15T06:51:12.590Z,11.80
2019-05-15T06:53:43.338Z,11.80
2019-05-15T06:56:14.081Z,11.80
2019-05-15T06:58:44.894Z,12.10
2019-05-15T07:01:15.709Z,12.00
2019-05-15T07:03:48.475Z,12.10
2019-05-15T07:06:18.734Z,12.10
2019-05-15T07:08:49.871Z,12.00
2019-05-15T07:11:20.736Z,11.80
2019-05-15T07:13:51.533Z,11.70
2019-05-15T07:16:22.369Z,11.80
2019-05-15T07:18:53.159Z,12.00
2019-05-15T07:21:23.976Z,12.00
2019-05-15T07:23:54.881Z,12.40
2019-05-15T07:26:28.829Z,12.60
2019-05-15T07:28:59.544Z,12.30
2019-05-15T07:31:30.554Z,12.40
2019-05-15T07:34:01.254Z,12.30
2019-05-15T07:36:31.954Z,12.20
2019-05-15T07:39:02.707Z,12.30
2019-05-15T07:41:33.489Z,12.80
2019-05-15T07:44:04.261Z,13.00
2019-05-15T07:46:35.009Z,13.30
2019-05-15T07:49:05.740Z,13.40
2019-05-15T07:51:38.146Z,13.50
2019-05-15T07:54:09.387Z,13.60
2019-05-15T07:56:40.288Z,13.80
2019-05-15T07:59:10.954Z,13.50
2019-05-15T08:01:41.710Z,13.70
2019-05-15T08:04:24.660Z,13.70
2019-05-15T08:06:44.923Z,13.60
2019-05-15T08:09:17.850Z,13.90
2019-05-15T08:11:48.763Z,14.00
2019-05-15T08:14:19.738Z,14.00
2019-05-15T08:16:50.584Z,14.00
2019-05-15T08:19:21.395Z,14.40
2019-05-15T08:21:52.949Z,14.50
2019-05-15T08:24:23.719Z,14.60
2019-05-15T08:26:54.480Z,14.80
2019-05-15T08:29:25.249Z,15.00
2019-05-15T08:31:56.244Z,15.00
2019-05-15T08:34:28.258Z,15.20
2019-05-15T08:36:59.180Z,15.20
2019-05-15T08:39:30.028Z,15.10
2019-05-15T08:42:00.760Z,14.70
2019-05-15T08:44:31.565Z,14.50
2019-05-15T08:47:02.334Z,14.60
2019-05-15T08:49:33.190Z,14.60
2019-05-15T08:52:07.165Z,14.40
2019-05-15T08:54:38.353Z,14.80
2019-05-15T08:57:09.181Z,14.90
2019-05-15T08:59:39.896Z,14.90
2019-05-15T09:02:11.100Z,14.80
2019-05-15T09:04:41.956Z,15.00
2019-05-15T09:07:12.784Z,15.10
2019-05-15T09:09:43.679Z,15.10
2019-05-15T09:12:14.469Z,15.10
2019-05-15T09:14:45.149Z,15.10
2019-05-15T09:17:18.066Z,15.20
2019-05-15T09:19:48.310Z,15.60
2019-05-15T09:22:19.345Z,16.00
2019-05-15T09:24:50.149Z,16.10
2019-05-15T09:27:20.850Z,16.00
2019-05-15T09:29:51.689Z,15.80
2019-05-15T09:32:22.414Z,15.60
2019-05-15T09:34:55.322Z,15.70
2019-05-15T09:37:28.579Z,15.90
2019-05-15T09:39:58.969Z,15.80
2019-05-15T09:42:30.888Z,15.90
2019-05-15T09:45:01.658Z,15.90
2019-05-15T09:47:32.401Z,15.80
2019-05-15T09:50:03.385Z,15.40
2019-05-15T09:52:34.130Z,15.30
2019-05-15T09:55:05.069Z,15.60
2019-05-15T09:57:38.393Z,15.70
2019-05-15T10:00:09.165Z,16.10
2019-05-15T10:02:40.030Z,16.10
2019-05-15T10:05:12.417Z,15.70
2019-05-15T10:07:43.222Z,15.80
2019-05-15T10:10:14.310Z,16.20
2019-05-15T10:12:45.167Z,15.80
2019-05-15T10:15:18.410Z,16.00
2019-05-15T10:17:50.928Z,16.40
2019-05-15T10:20:21.234Z,16.50
2019-05-15T10:22:54.809Z,16.30
2019-05-15T10:25:24.769Z,15.90
2019-05-15T10:27:57.846Z,16.20
2019-05-15T10:30:28.386Z,15.80
2019-05-15T10:32:59.328Z,16.10
2019-05-15T10:35:31.779Z,16.60
2019-05-15T10:38:02.759Z,17.00
2019-05-15T10:40:33.627Z,16.70
2019-05-15T10:43:04.505Z,16.50
2019-05-15T10:45:35.429Z,16.40
2019-05-15T10:48:09.160Z,16.10
2019-05-15T10:50:38.953Z,15.90
2019-05-15T10:53:11.353Z,16.10
2019-05-15T10:55:42.269Z,16.20
2019-05-15T10:58:17.355Z,16.10
2019-05-15T11:00:45.449Z,16.00
2019-05-15T11:03:16.144Z,15.60
2019-05-15T11:05:48.919Z,15.60
2019-05-15T11:08:19.325Z,15.70
2019-05-15T11:10:50.115Z,15.50
2019-05-15T11:13:21.131Z,15.60
2019-05-15T11:15:51.879Z,15.80
2019-05-15T11:18:22.814Z,15.60
2019-05-15T11:20:53.789Z,15.50
2019-05-15T11:23:24.501Z,15.70
2019-05-15T11:25:55.289Z,15.60
2019-05-15T11:28:31.769Z,15.50
2019-05-15T11:31:00.126Z,16.10
2019-05-15T11:33:30.925Z,15.90
2019-05-15T11:36:05.776Z,15.80
2019-05-15T11:38:34.144Z,16.10
2019-05-15T11:41:04.915Z,15.70
2019-05-15T11:43:38.278Z,15.60
2019-05-15T11:46:09.896Z,15.30
2019-05-15T11:48:40.589Z,15.50
2019-05-15T11:51:11.404Z,15.20
2019-05-15T11:53:42.158Z,15.60
2019-05-15T11:56:13.084Z,16.00
2019-05-15T11:58:43.995Z,15.60
2019-05-15T12:01:18.613Z,15.80
2019-05-15T12:03:48.259Z,16.40
2019-05-15T12:06:22.783Z,16.60
2019-05-15T12:08:51.766Z,15.90
2019-05-15T12:11:33.241Z,16.10
2019-05-15T12:13:55.019Z,16.50
2019-05-15T12:16:28.778Z,15.20
2019-05-15T12:19:08.480Z,15.80
2019-05-15T12:21:30.860Z,15.70
2019-05-15T12:24:01.730Z,15.90
2019-05-15T12:26:32.491Z,15.00
2019-05-15T12:29:03.611Z,14.70
2019-05-15T12:31:34.385Z,14.70
2019-05-15T12:34:05.164Z,15.00
2019-05-15T12:36:57.745Z,14.80
2019-05-15T12:39:13.566Z,14.80
2019-05-15T12:59:44.824Z,15.50
2019-05-15T13:02:01.139Z,16.00
2019-05-15T13:04:31.909Z,15.70
2019-05-15T13:07:12.698Z,15.90
2019-05-15T13:09:35.331Z,15.60
2019-05-15T13:12:08.395Z,15.70
2019-05-15T13:14:39.062Z,15.50
2019-05-15T13:17:09.859Z,15.60
2019-05-15T13:19:40.695Z,17.20
2019-05-15T13:22:18.140Z,17.90
2019-05-15T13:24:43.979Z,18.40
2019-05-15T13:27:15.036Z,18.60
2019-05-15T13:29:45.925Z,18.60
2019-05-15T13:32:16.684Z,18.80
2019-05-15T13:34:48.733Z,17.90
2019-05-15T13:37:27.479Z,18.20
2019-05-15T13:39:52.261Z,18.00
2019-05-15T13:42:22.829Z,18.00
2019-05-15T13:44:53.369Z,18.30
2019-05-15T13:47:24.138Z,18.70
2019-05-15T13:49:54.684Z,17.80
2019-05-15T13:52:25.184Z,17.60
2019-05-15T13:54:55.844Z,17.90
2019-05-15T13:57:29.733Z,18.50
2019-05-15T14:00:00.064Z,18.90
2019-05-15T14:02:30.779Z,18.50
2019-05-15T14:05:01.435Z,19.00
2019-05-15T14:07:44.999Z,19.10
2019-05-15T14:10:04.519Z,19.90
2019-05-15T14:12:38.355Z,21.60
2019-05-15T14:15:09.837Z,20.50
2019-05-15T14:17:41.052Z,20.30
2019-05-15T14:20:11.944Z,21.70
2019-05-15T14:22:42.610Z,22.20
2019-05-15T14:25:14.904Z,21.30
2019-05-15T14:27:48.408Z,20.60
2019-05-15T14:30:18.610Z,21.10
2019-05-15T14:32:49.576Z,22.20
2019-05-15T14:35:20.624Z,22.50
2019-05-15T14:38:02.549Z,22.70
2019-05-15T14:40:24.074Z,22.60
2019-05-15T14:42:54.947Z,23.10
2019-05-15T14:45:27.942Z,22.60
2019-05-15T14:47:58.292Z,23.30
2019-05-15T14:50:29.199Z,21.30
2019-05-15T14:52:59.908Z,21.70
2019-05-15T14:55:33.654Z,22.20
2019-05-15T14:58:03.215Z,20.90
2019-05-15T15:00:34.983Z,20.00
2019-05-15T15:03:06.124Z,19.40
2019-05-15T15:05:38.804Z,18.10
2019-05-15T15:08:21.599Z,18.70
2019-05-15T15:10:41.660Z,18.80
2019-05-15T15:13:12.474Z,20.60
2019-05-15T15:15:43.444Z,21.00
2019-05-15T15:18:14.444Z,21.00
2019-05-15T15:20:45.249Z,21.00
2019-05-15T15:23:16.159Z,20.60
2019-05-15T15:25:48.435Z,20.90
2019-05-15T15:28:19.399Z,21.80
2019-05-15T15:30:50.343Z,22.50
2019-05-15T15:33:21.694Z,22.90
2019-05-15T15:35:52.854Z,22.30
2019-05-15T15:38:37.533Z,21.80
2019-05-15T15:41:00.064Z,22.80
2019-05-15T15:43:28.797Z,22.10
2019-05-15T15:45:59.854Z,22.30
2019-05-15T15:48:30.554Z,22.20
2019-05-15T15:51:01.324Z,20.90
2019-05-15T15:53:32.269Z,21.20
2019-05-15T15:56:03.300Z,20.90
2019-05-15T15:58:34.024Z,21.40
2019-05-15T16:01:04.919Z,22.10
2019-05-15T16:03:38.027Z,22.00
2019-05-15T16:06:08.365Z,22.50
2019-05-15T16:08:52.051Z,21.90
2019-05-15T16:11:11.647Z,20.40
2019-05-15T16:13:42.444Z,19.40
2019-05-15T16:16:13.164Z,18.90
2019-05-15T16:18:43.872Z,19.30
2019-05-15T16:21:15.059Z,20.00
2019-05-15T16:23:47.936Z,19.80
2019-05-15T16:26:19.544Z,19.70
2019-05-15T16:28:50.540Z,19.20
2019-05-15T16:31:21.839Z,19.70
2019-05-15T16:33:52.920Z,19.80
2019-05-15T16:36:24.024Z,19.80
2019-05-15T16:39:05.179Z,18.70
2019-05-15T16:41:28.990Z,19.10
2019-05-15T16:43:59.663Z,21.00
2019-05-15T16:46:30.688Z,20.20
2019-05-15T16:49:01.824Z,20.10
2019-05-15T16:51:32.623Z,20.30
2019-05-15T16:54:03.711Z,21.90
2019-05-15T16:56:36.459Z,20.70
2019-05-15T16:59:07.050Z,20.00
2019-05-15T17:01:39.330Z,19.70
2019-05-15T17:04:10.439Z,19.50
2019-05-15T17:06:41.298Z,19.30
2019-05-15T17:09:21.048Z,20.20
2019-05-15T17:11:44.751Z,19.80
2019-05-15T17:14:19.415Z,21.10
2019-05-15T17:16:48.917Z,21.40
2019-05-15T17:19:19.844Z,21.20
2019-05-15T17:21:50.904Z,21.70
2019-05-15T17:24:22.023Z,21.00
2019-05-15T17:26:53.148Z,20.70
2019-05-15T17:29:24.362Z,20.90
2019-05-15T17:31:55.434Z,21.00
2019-05-15T17:34:28.443Z,21.60
2019-05-15T17:36:58.759Z,22.00
2019-05-15T17:39:36.798Z,22.60
2019-05-15T17:42:02.394Z,22.60
2019-05-15T17:44:33.289Z,22.70
2019-05-15T17:47:04.095Z,23.10
2019-05-15T17:49:35.189Z,22.30
2019-05-15T17:52:08.533Z,22.60
2019-05-15T17:54:38.851Z,21.60
2019-05-15T17:57:09.810Z,21.40
2019-05-15T17:59:41.501Z,22.10
2019-05-15T18:02:12.783Z,22.40
2019-05-15T18:04:43.631Z,22.30
2019-05-15T18:07:14.639Z,21.80
2019-05-15T18:09:51.523Z,21.80
2019-05-15T18:12:18.087Z,21.60
2019-05-15T18:14:48.934Z,21.00
2019-05-15T18:17:20.234Z,20.40
2019-05-15T18:19:51.614Z,20.40
2019-05-15T18:22:22.609Z,20.40
2019-05-15T18:24:53.849Z,19.90
2019-05-15T18:27:24.694Z,19.60
2019-05-15T18:29:57.868Z,19.30
2019-05-15T18:32:28.924Z,19.20
2019-05-15T18:34:59.989Z,18.80
2019-05-15T18:37:31.364Z,18.30
2019-05-15T18:40:06.208Z,17.60
2019-05-15T18:42:34.785Z,17.00
2019-05-15T18:45:05.810Z,16.70
2019-05-15T18:47:38.905Z,16.20
2019-05-15T18:50:13.045Z,15.90
2019-05-15T18:52:42.454Z,15.60
2019-05-15T18:55:13.734Z,15.40
2019-05-15T18:57:45.308Z,15.10
2019-05-15T19:00:18.449Z,15.00
2019-05-15T19:02:49.481Z,14.80
2019-05-15T19:05:20.789Z,14.60
2019-05-15T19:07:53.514Z,14.50
2019-05-15T19:10:24.684Z,14.30
2019-05-15T19:12:57.880Z,14.30
2019-05-15T19:15:29.788Z,14.20
2019-05-15T19:18:01.513Z,14.20
2019-05-15T19:20:32.409Z,14.10
2019-05-15T19:23:03.340Z,14.00
2019-05-15T19:25:34.164Z,13.80
2019-05-15T19:28:08.245Z,13.70
2019-05-15T19:30:38.866Z,13.70
2019-05-15T19:33:10.144Z,13.60
2019-05-15T19:35:41.694Z,13.60
2019-05-15T19:38:12.639Z,13.50
2019-05-15T19:40:44.054Z,13.50
2019-05-15T19:43:15.236Z,13.40
2019-05-15T19:45:47.733Z,13.40
2019-05-15T19:48:20.180Z,13.20
2019-05-15T19:50:51.174Z,13.00
2019-05-15T19:53:21.996Z,13.00
2019-05-15T19:55:53.130Z,12.80
2019-05-15T19:58:24.044Z,12.70
2019-05-15T20:00:55.305Z,12.80
2019-05-15T20:03:28.412Z,12.70
2019-05-15T20:06:01.644Z,12.60
2019-05-15T20:08:33.119Z,12.60
2019-05-15T20:11:04.530Z,12.60
2019-05-15T20:13:38.213Z,12.60
2019-05-15T20:16:08.549Z,12.70
2019-05-15T20:18:39.494Z,12.60
2019-05-15T20:21:10.726Z,12.50
2019-05-15T20:23:42.065Z,12.50
2019-05-15T20:26:12.954Z,12.50
2019-05-15T20:28:44.263Z,12.50
2019-05-15T20:31:15.739Z,12.50
2019-05-15T20:33:48.436Z,12.50
2019-05-15T20:36:20.122Z,12.50
2019-05-15T20:38:51.569Z,12.40
2019-05-15T20:41:22.829Z,12.40
2019-05-15T20:43:54.464Z,12.30
2019-05-15T20:46:28.599Z,12.20
2019-05-15T20:48:59.049Z,12.10
2019-05-15T20:51:30.327Z,12.10
2019-05-15T20:54:01.878Z,12.10
2019-05-15T20:56:33.294Z,12.00
2019-05-15T20:59:05.024Z,12.00
2019-05-15T21:01:36.350Z,11.90
2019-05-15T21:04:18.932Z,11.90
2019-05-15T21:06:40.043Z,11.80
2019-05-15T21:09:11.109Z,11.70
2019-05-15T21:11:42.064Z,11.60
2019-05-15T21:14:13.149Z,11.40
2019-05-15T21:16:44.109Z,11.30
2019-05-15T21:19:15.112Z,11.40
2019-05-15T21:21:47.977Z,11.50
2019-05-15T21:24:18.827Z,11.50
2019-05-15T21:26:49.887Z,11.50
2019-05-15T21:29:20.739Z,11.50
2019-05-15T21:31:51.680Z,11.50
2019-05-15T21:34:36.725Z,11.50
2019-05-15T21:36:55.179Z,11.50
2019-05-15T21:39:28.104Z,11.20
2019-05-15T21:41:59.537Z,11.00
2019-05-15T21:44:30.710Z,11.00
2019-05-15T21:47:01.958Z,11.00
2019-05-15T21:49:33.189Z,11.00
2019-05-15T21:52:04.633Z,10.90
2019-05-15T21:54:35.454Z,10.70
2019-05-15T21:57:28.318Z,10.80
2019-05-15T21:59:38.809Z,10.80
2019-05-15T22:02:10.426Z,10.80
2019-05-15T22:04:51.357Z,10.90
2019-05-15T22:07:14.495Z,10.60
2019-05-15T22:09:46.039Z,10.40
2019-05-15T22:12:18.414Z,10.30
2019-05-15T22:14:49.619Z,10.30
2019-05-15T22:17:20.774Z,10.30
2019-05-15T22:19:51.774Z,10.40
2019-05-15T22:22:22.806Z,10.50
2019-05-15T22:24:53.759Z,10.30
2019-05-15T22:27:25.304Z,10.00
2019-05-15T22:29:58.661Z,9.80
2019-05-15T22:32:29.294Z,9.60
2019-05-15T22:35:09.780Z,9.50
2019-05-15T22:37:32.773Z,9.40
2019-05-15T22:40:03.588Z,9.30
2019-05-15T22:42:35.106Z,9.20
2019-05-15T22:45:09.032Z,9.20
2019-05-15T22:47:39.365Z,9.10
2019-05-15T22:50:10.973Z,9.10
2019-05-15T22:52:41.749Z,9.30
2019-05-15T22:55:13.169Z,9.40
2019-05-15T22:57:44.231Z,9.30
2019-05-15T23:00:16.039Z,9.30
2019-05-15T23:02:48.779Z,9.40
2019-05-15T23:05:27.826Z,9.50
2019-05-15T23:07:53.056Z,9.60
2019-05-15T23:10:24.370Z,9.60
2019-05-15T23:12:55.314Z,9.70
2019-05-15T23:15:28.171Z,9.70
2019-05-15T23:17:59.378Z,9.70
2019-05-15T23:20:30.783Z,9.50
2019-05-15T23:23:01.536Z,9.50
2019-05-15T23:25:32.803Z,9.60
2019-05-15T23:28:03.568Z,9.60
2019-05-15T23:30:34.928Z,9.30
2019-05-15T23:33:05.784Z,9.20
2019-05-15T23:35:38.992Z,9.30
2019-05-15T23:38:10.308Z,9.10
2019-05-15T23:40:41.138Z,9.20
2019-05-15T23:43:12.274Z,9.20
2019-05-15T23:45:44.109Z,9.30
2019-05-15T23:48:14.819Z,9.40
2019-05-15T23:50:45.603Z,9.40
2019-05-15T23:53:19.129Z,9.20
2019-05-15T23:55:48.925Z,9.00
2019-05-15T23:58:19.729Z,9.10
